sensor_id;sensor_type;location;lat;lon;timestamp;P1;durP1;ratioP1;P2;durP2;ratioP2
9334;SDS011;4706;41.844;26.082;2023-03-03T00:01:07;18.30;;;16.45;;
9334;SDS011;4706;41.844;26.082;2023-03-03T00:03:33;19.63;;;16.83;;
9334;SDS011;4706;41.844;26.082;2023-03-03T00:05:59;19.98;;;17.35;;
9334;SDS011;4706;41.844;26.082;2023-03-03T00:08:26;19.70;;;17.60;;
9334;SDS011;4706;41.844;26.082;2023-03-03T00:10:51;20.92;;;18.10;;
9334;SDS011;4706;41.844;26.082;2023-03-03T00:15:44;19.02;;;17.00;;
9334;SDS011;4706;41.844;26.082;2023-03-03T00:18:30;20.45;;;17.33;;
9334;SDS011;4706;41.844;26.082;2023-03-03T00:21:00;19.90;;;15.80;;
9334;SDS011;4706;41.844;26.082;2023-03-03T00:25:55;18.50;;;16.67;;
9334;SDS011;4706;41.844;26.082;2023-03-03T00:28:30;19.95;;;16.25;;
9334;SDS011;4706;41.844;26.082;2023-03-03T00:31:11;19.10;;;16.85;;
9334;SDS011;4706;41.844;26.082;2023-03-03T00:33:46;21.67;;;16.45;;
9334;SDS011;4706;41.844;26.082;2023-03-03T00:38:47;23.73;;;16.27;;
9334;SDS011;4706;41.844;26.082;2023-03-03T00:41:23;19.35;;;16.00;;
9334;SDS011;4706;41.844;26.082;2023-03-03T00:43:51;19.20;;;15.85;;
9334;SDS011;4706;41.844;26.082;2023-03-03T00:46:18;17.65;;;15.88;;
9334;SDS011;4706;41.844;26.082;2023-03-03T00:48:48;18.60;;;15.93;;
9334;SDS011;4706;41.844;26.082;2023-03-03T00:53:54;20.58;;;15.80;;
9334;SDS011;4706;41.844;26.082;2023-03-03T00:56:20;22.35;;;17.08;;
9334;SDS011;4706;41.844;26.082;2023-03-03T00:58:46;19.88;;;15.75;;
9334;SDS011;4706;41.844;26.082;2023-03-03T01:01:14;18.67;;;16.10;;
9334;SDS011;4706;41.844;26.082;2023-03-03T01:03:40;18.05;;;15.55;;
9334;SDS011;4706;41.844;26.082;2023-03-03T01:06:06;18.65;;;15.02;;
9334;SDS011;4706;41.844;26.082;2023-03-03T01:08:32;16.52;;;14.70;;
9334;SDS011;4706;41.844;26.082;2023-03-03T01:10:59;17.83;;;14.60;;
9334;SDS011;4706;41.844;26.082;2023-03-03T01:13:30;16.27;;;14.60;;
9334;SDS011;4706;41.844;26.082;2023-03-03T01:16:00;17.67;;;14.90;;
9334;SDS011;4706;41.844;26.082;2023-03-03T01:18:27;18.85;;;15.13;;
9334;SDS011;4706;41.844;26.082;2023-03-03T01:20:54;21.02;;;15.10;;
9334;SDS011;4706;41.844;26.082;2023-03-03T01:23:19;18.10;;;14.70;;
9334;SDS011;4706;41.844;26.082;2023-03-03T01:25:45;18.35;;;15.57;;
9334;SDS011;4706;41.844;26.082;2023-03-03T01:28:10;18.30;;;16.50;;
9334;SDS011;4706;41.844;26.082;2023-03-03T01:30:36;27.15;;;20.50;;
9334;SDS011;4706;41.844;26.082;2023-03-03T01:33:02;26.08;;;20.58;;
9334;SDS011;4706;41.844;26.082;2023-03-03T01:35:28;24.88;;;19.63;;
9334;SDS011;4706;41.844;26.082;2023-03-03T01:37:54;28.30;;;19.67;;
9334;SDS011;4706;41.844;26.082;2023-03-03T01:40:21;31.25;;;19.75;;
9334;SDS011;4706;41.844;26.082;2023-03-03T01:42:48;23.85;;;18.85;;
9334;SDS011;4706;41.844;26.082;2023-03-03T01:45:16;20.52;;;17.30;;
9334;SDS011;4706;41.844;26.082;2023-03-03T01:47:48;21.20;;;16.58;;
9334;SDS011;4706;41.844;26.082;2023-03-03T01:50:22;20.08;;;15.90;;
9334;SDS011;4706;41.844;26.082;2023-03-03T01:52:55;19.63;;;16.60;;
9334;SDS011;4706;41.844;26.082;2023-03-03T01:55:24;22.38;;;18.15;;
9334;SDS011;4706;41.844;26.082;2023-03-03T01:58:01;26.30;;;18.47;;
9334;SDS011;4706;41.844;26.082;2023-03-03T02:00:52;20.20;;;18.10;;
9334;SDS011;4706;41.844;26.082;2023-03-03T02:03:22;21.42;;;16.77;;
9334;SDS011;4706;41.844;26.082;2023-03-03T02:05:49;21.33;;;16.85;;
9334;SDS011;4706;41.844;26.082;2023-03-03T02:08:18;17.83;;;16.03;;
9334;SDS011;4706;41.844;26.082;2023-03-03T02:10:46;16.48;;;14.40;;
9334;SDS011;4706;41.844;26.082;2023-03-03T02:13:13;17.15;;;15.30;;
9334;SDS011;4706;41.844;26.082;2023-03-03T02:15:39;20.42;;;15.25;;
9334;SDS011;4706;41.844;26.082;2023-03-03T02:18:12;17.55;;;14.35;;
9334;SDS011;4706;41.844;26.082;2023-03-03T02:26:01;16.33;;;14.63;;
9334;SDS011;4706;41.844;26.082;2023-03-03T02:28:32;18.00;;;14.35;;
9334;SDS011;4706;41.844;26.082;2023-03-03T02:30:58;14.82;;;13.30;;
9334;SDS011;4706;41.844;26.082;2023-03-03T02:33:25;17.02;;;13.70;;
9334;SDS011;4706;41.844;26.082;2023-03-03T02:35:52;15.23;;;13.40;;
9334;SDS011;4706;41.844;26.082;2023-03-03T02:43:30;15.30;;;13.70;;
9334;SDS011;4706;41.844;26.082;2023-03-03T02:46:03;17.08;;;14.00;;
9334;SDS011;4706;41.844;26.082;2023-03-03T02:48:29;15.23;;;13.50;;
9334;SDS011;4706;41.844;26.082;2023-03-03T02:50:54;19.77;;;13.57;;
9334;SDS011;4706;41.844;26.082;2023-03-03T02:53:20;18.40;;;14.70;;
9334;SDS011;4706;41.844;26.082;2023-03-03T02:55:45;16.05;;;14.23;;
9334;SDS011;4706;41.844;26.082;2023-03-03T02:58:11;19.25;;;14.93;;
9334;SDS011;4706;41.844;26.082;2023-03-03T03:00:36;16.73;;;14.95;;
9334;SDS011;4706;41.844;26.082;2023-03-03T03:03:01;17.92;;;14.38;;
9334;SDS011;4706;41.844;26.082;2023-03-03T03:05:27;16.17;;;13.80;;
9334;SDS011;4706;41.844;26.082;2023-03-03T03:07:53;17.50;;;14.60;;
9334;SDS011;4706;41.844;26.082;2023-03-03T03:10:18;15.48;;;13.88;;
9334;SDS011;4706;41.844;26.082;2023-03-03T03:12:44;16.10;;;14.38;;
9334;SDS011;4706;41.844;26.082;2023-03-03T03:15:09;15.57;;;13.35;;
9334;SDS011;4706;41.844;26.082;2023-03-03T03:17:38;15.48;;;13.90;;
9334;SDS011;4706;41.844;26.082;2023-03-03T03:20:04;18.60;;;15.02;;
9334;SDS011;4706;41.844;26.082;2023-03-03T03:22:30;16.37;;;13.47;;
9334;SDS011;4706;41.844;26.082;2023-03-03T03:24:55;15.77;;;14.17;;
9334;SDS011;4706;41.844;26.082;2023-03-03T03:27:21;20.30;;;14.80;;
9334;SDS011;4706;41.844;26.082;2023-03-03T03:29:47;17.13;;;15.32;;
9334;SDS011;4706;41.844;26.082;2023-03-03T03:32:13;20.23;;;15.93;;
9334;SDS011;4706;41.844;26.082;2023-03-03T03:34:38;16.20;;;14.48;;
9334;SDS011;4706;41.844;26.082;2023-03-03T03:37:04;17.98;;;14.93;;
9334;SDS011;4706;41.844;26.082;2023-03-03T03:39:29;17.90;;;14.15;;
9334;SDS011;4706;41.844;26.082;2023-03-03T03:41:54;18.33;;;14.82;;
9334;SDS011;4706;41.844;26.082;2023-03-03T03:44:20;16.50;;;13.83;;
9334;SDS011;4706;41.844;26.082;2023-03-03T03:46:48;15.93;;;13.82;;
9334;SDS011;4706;41.844;26.082;2023-03-03T03:49:13;17.17;;;13.83;;
9334;SDS011;4706;41.844;26.082;2023-03-03T03:51:38;17.30;;;14.05;;
9334;SDS011;4706;41.844;26.082;2023-03-03T03:54:05;18.38;;;14.70;;
9334;SDS011;4706;41.844;26.082;2023-03-03T03:56:31;19.17;;;14.50;;
9334;SDS011;4706;41.844;26.082;2023-03-03T03:58:57;17.60;;;14.60;;
9334;SDS011;4706;41.844;26.082;2023-03-03T04:01:22;15.60;;;13.97;;
9334;SDS011;4706;41.844;26.082;2023-03-03T04:03:49;18.15;;;15.82;;
9334;SDS011;4706;41.844;26.082;2023-03-03T04:06:14;19.10;;;16.48;;
9334;SDS011;4706;41.844;26.082;2023-03-03T04:08:40;18.95;;;16.52;;
9334;SDS011;4706;41.844;26.082;2023-03-03T04:11:05;21.27;;;15.82;;
9334;SDS011;4706;41.844;26.082;2023-03-03T04:13:31;19.90;;;16.85;;
9334;SDS011;4706;41.844;26.082;2023-03-03T04:15:59;18.13;;;16.23;;
9334;SDS011;4706;41.844;26.082;2023-03-03T04:18:26;20.90;;;16.80;;
9334;SDS011;4706;41.844;26.082;2023-03-03T04:20:52;18.83;;;16.30;;
9334;SDS011;4706;41.844;26.082;2023-03-03T04:23:18;18.63;;;15.02;;
9334;SDS011;4706;41.844;26.082;2023-03-03T04:25:45;19.33;;;16.58;;
9334;SDS011;4706;41.844;26.082;2023-03-03T04:28:11;20.25;;;16.85;;
9334;SDS011;4706;41.844;26.082;2023-03-03T04:30:36;18.40;;;16.17;;
9334;SDS011;4706;41.844;26.082;2023-03-03T04:33:02;18.90;;;15.23;;
9334;SDS011;4706;41.844;26.082;2023-03-03T04:35:27;17.42;;;15.60;;
9334;SDS011;4706;41.844;26.082;2023-03-03T04:37:53;18.02;;;15.85;;
9334;SDS011;4706;41.844;26.082;2023-03-03T04:40:18;18.48;;;15.90;;
9334;SDS011;4706;41.844;26.082;2023-03-03T04:42:44;18.23;;;15.15;;
9334;SDS011;4706;41.844;26.082;2023-03-03T04:45:10;17.98;;;16.08;;
9334;SDS011;4706;41.844;26.082;2023-03-03T04:47:36;19.85;;;17.55;;
9334;SDS011;4706;41.844;26.082;2023-03-03T04:50:01;20.57;;;17.33;;
9334;SDS011;4706;41.844;26.082;2023-03-03T04:52:27;24.25;;;19.00;;
9334;SDS011;4706;41.844;26.082;2023-03-03T04:54:53;27.17;;;18.95;;
9334;SDS011;4706;41.844;26.082;2023-03-03T04:57:18;21.50;;;18.30;;
9334;SDS011;4706;41.844;26.082;2023-03-03T04:59:44;23.35;;;19.65;;
9334;SDS011;4706;41.844;26.082;2023-03-03T05:02:09;27.08;;;19.40;;
9334;SDS011;4706;41.844;26.082;2023-03-03T05:04:37;22.58;;;18.95;;
9334;SDS011;4706;41.844;26.082;2023-03-03T05:07:02;21.40;;;19.17;;
9334;SDS011;4706;41.844;26.082;2023-03-03T05:09:28;22.17;;;19.03;;
9334;SDS011;4706;41.844;26.082;2023-03-03T05:11:53;22.80;;;20.35;;
9334;SDS011;4706;41.844;26.082;2023-03-03T05:14:19;24.83;;;21.70;;
9334;SDS011;4706;41.844;26.082;2023-03-03T05:16:44;23.70;;;21.13;;
9334;SDS011;4706;41.844;26.082;2023-03-03T05:19:10;21.92;;;19.63;;
9334;SDS011;4706;41.844;26.082;2023-03-03T05:21:36;24.20;;;21.27;;
9334;SDS011;4706;41.844;26.082;2023-03-03T05:24:01;23.83;;;20.05;;
9334;SDS011;4706;41.844;26.082;2023-03-03T05:26:27;21.47;;;18.50;;
9334;SDS011;4706;41.844;26.082;2023-03-03T05:28:52;21.10;;;18.85;;
9334;SDS011;4706;41.844;26.082;2023-03-03T05:31:18;20.88;;;18.67;;
9334;SDS011;4706;41.844;26.082;2023-03-03T05:33:43;21.60;;;18.85;;
9334;SDS011;4706;41.844;26.082;2023-03-03T05:36:09;22.63;;;19.25;;
9334;SDS011;4706;41.844;26.082;2023-03-03T05:38:34;25.80;;;20.63;;
9334;SDS011;4706;41.844;26.082;2023-03-03T05:40:59;23.92;;;21.02;;
9334;SDS011;4706;41.844;26.082;2023-03-03T05:43:25;24.20;;;21.70;;
9334;SDS011;4706;41.844;26.082;2023-03-03T05:45:54;28.38;;;21.92;;
9334;SDS011;4706;41.844;26.082;2023-03-03T05:48:21;23.67;;;20.58;;
9334;SDS011;4706;41.844;26.082;2023-03-03T05:50:46;24.80;;;21.98;;
9334;SDS011;4706;41.844;26.082;2023-03-03T05:53:12;22.23;;;19.58;;
9334;SDS011;4706;41.844;26.082;2023-03-03T05:55:37;26.38;;;22.13;;
9334;SDS011;4706;41.844;26.082;2023-03-03T05:58:03;25.13;;;21.27;;
9334;SDS011;4706;41.844;26.082;2023-03-03T06:00:28;21.38;;;19.27;;
9334;SDS011;4706;41.844;26.082;2023-03-03T06:02:54;26.23;;;19.75;;
9334;SDS011;4706;41.844;26.082;2023-03-03T06:05:20;28.45;;;22.65;;
9334;SDS011;4706;41.844;26.082;2023-03-03T06:07:45;25.45;;;20.65;;
9334;SDS011;4706;41.844;26.082;2023-03-03T06:10:11;20.40;;;17.92;;
9334;SDS011;4706;41.844;26.082;2023-03-03T06:12:36;22.45;;;18.75;;
9334;SDS011;4706;41.844;26.082;2023-03-03T06:15:03;22.55;;;20.20;;
9334;SDS011;4706;41.844;26.082;2023-03-03T06:17:30;23.02;;;20.50;;
9334;SDS011;4706;41.844;26.082;2023-03-03T06:19:55;25.63;;;20.88;;
9334;SDS011;4706;41.844;26.082;2023-03-03T06:22:21;24.50;;;20.58;;
9334;SDS011;4706;41.844;26.082;2023-03-03T06:24:46;22.77;;;19.55;;
9334;SDS011;4706;41.844;26.082;2023-03-03T06:27:12;19.88;;;17.80;;
9334;SDS011;4706;41.844;26.082;2023-03-03T06:29:37;21.27;;;18.73;;
9334;SDS011;4706;41.844;26.082;2023-03-03T06:32:03;23.55;;;18.98;;
9334;SDS011;4706;41.844;26.082;2023-03-03T06:34:29;22.08;;;18.15;;
9334;SDS011;4706;41.844;26.082;2023-03-03T06:36:54;22.70;;;18.83;;
9334;SDS011;4706;41.844;26.082;2023-03-03T06:39:21;49.00;;;40.08;;
9334;SDS011;4706;41.844;26.082;2023-03-03T06:41:46;25.17;;;22.33;;
9334;SDS011;4706;41.844;26.082;2023-03-03T06:44:12;21.17;;;18.33;;
9334;SDS011;4706;41.844;26.082;2023-03-03T06:46:37;23.02;;;19.85;;
9334;SDS011;4706;41.844;26.082;2023-03-03T06:49:03;23.92;;;21.42;;
9334;SDS011;4706;41.844;26.082;2023-03-03T06:51:33;23.98;;;20.38;;
9334;SDS011;4706;41.844;26.082;2023-03-03T06:54:09;23.02;;;20.58;;
9334;SDS011;4706;41.844;26.082;2023-03-03T06:56:37;24.02;;;21.55;;
9334;SDS011;4706;41.844;26.082;2023-03-03T06:59:05;23.23;;;19.10;;
9334;SDS011;4706;41.844;26.082;2023-03-03T07:01:36;23.10;;;18.60;;
9334;SDS011;4706;41.844;26.082;2023-03-03T07:07:14;23.63;;;18.80;;
9334;SDS011;4706;41.844;26.082;2023-03-03T07:09:45;21.75;;;18.23;;
9334;SDS011;4706;41.844;26.082;2023-03-03T07:12:14;22.27;;;18.40;;
9334;SDS011;4706;41.844;26.082;2023-03-03T07:14:49;23.30;;;19.80;;
9334;SDS011;4706;41.844;26.082;2023-03-03T07:17:20;25.88;;;21.17;;
9334;SDS011;4706;41.844;26.082;2023-03-03T07:19:47;22.00;;;19.15;;
9334;SDS011;4706;41.844;26.082;2023-03-03T07:22:18;24.05;;;21.55;;
9334;SDS011;4706;41.844;26.082;2023-03-03T07:24:47;19.67;;;17.67;;
9334;SDS011;4706;41.844;26.082;2023-03-03T07:27:27;22.85;;;18.90;;
9334;SDS011;4706;41.844;26.082;2023-03-03T07:32:52;21.45;;;18.40;;
9334;SDS011;4706;41.844;26.082;2023-03-03T07:35:25;21.08;;;18.88;;
9334;SDS011;4706;41.844;26.082;2023-03-03T07:38:00;20.60;;;18.00;;
9334;SDS011;4706;41.844;26.082;2023-03-03T07:42:58;18.35;;;16.40;;
9334;SDS011;4706;41.844;26.082;2023-03-03T07:45:25;17.42;;;14.98;;
9334;SDS011;4706;41.844;26.082;2023-03-03T07:48:00;16.85;;;15.15;;
9334;SDS011;4706;41.844;26.082;2023-03-03T07:50:39;18.90;;;14.45;;
9334;SDS011;4706;41.844;26.082;2023-03-03T07:53:11;14.88;;;13.35;;
9334;SDS011;4706;41.844;26.082;2023-03-03T07:55:45;15.88;;;13.52;;
9334;SDS011;4706;41.844;26.082;2023-03-03T08:03:25;17.42;;;14.25;;
9334;SDS011;4706;41.844;26.082;2023-03-03T08:05:49;13.13;;;11.77;;
9334;SDS011;4706;41.844;26.082;2023-03-03T08:08:34;15.80;;;14.00;;
9334;SDS011;4706;41.844;26.082;2023-03-03T08:11:01;15.90;;;14.30;;
9334;SDS011;4706;41.844;26.082;2023-03-03T08:18:29;15.93;;;13.00;;
9334;SDS011;4706;41.844;26.082;2023-03-03T08:21:25;12.88;;;11.50;;
9334;SDS011;4706;41.844;26.082;2023-03-03T08:23:51;13.20;;;11.30;;
9334;SDS011;4706;41.844;26.082;2023-03-03T08:26:21;16.15;;;12.32;;
9334;SDS011;4706;41.844;26.082;2023-03-03T08:28:47;12.90;;;10.48;;
9334;SDS011;4706;41.844;26.082;2023-03-03T08:31:13;12.80;;;11.43;;
9334;SDS011;4706;41.844;26.082;2023-03-03T08:33:39;14.40;;;12.35;;
9334;SDS011;4706;41.844;26.082;2023-03-03T08:36:05;16.20;;;13.60;;
9334;SDS011;4706;41.844;26.082;2023-03-03T08:38:31;14.82;;;13.23;;
9334;SDS011;4706;41.844;26.082;2023-03-03T08:40:57;15.48;;;12.75;;
9334;SDS011;4706;41.844;26.082;2023-03-03T08:43:23;12.40;;;11.15;;
9334;SDS011;4706;41.844;26.082;2023-03-03T08:45:49;15.25;;;13.68;;
9334;SDS011;4706;41.844;26.082;2023-03-03T08:48:17;14.02;;;11.45;;
9334;SDS011;4706;41.844;26.082;2023-03-03T08:50:43;18.38;;;11.77;;
9334;SDS011;4706;41.844;26.082;2023-03-03T08:53:10;12.85;;;10.63;;
9334;SDS011;4706;41.844;26.082;2023-03-03T08:55:35;13.45;;;12.15;;
9334;SDS011;4706;41.844;26.082;2023-03-03T08:58:01;13.02;;;11.40;;
9334;SDS011;4706;41.844;26.082;2023-03-03T09:00:27;14.57;;;13.05;;
9334;SDS011;4706;41.844;26.082;2023-03-03T09:02:54;17.52;;;11.70;;
9334;SDS011;4706;41.844;26.082;2023-03-03T09:05:20;31.15;;;22.45;;
9334;SDS011;4706;41.844;26.082;2023-03-03T09:07:47;11.07;;;9.25;;
9334;SDS011;4706;41.844;26.082;2023-03-03T09:10:17;16.60;;;14.90;;
9334;SDS011;4706;41.844;26.082;2023-03-03T09:12:46;11.82;;;10.57;;
9334;SDS011;4706;41.844;26.082;2023-03-03T09:15:20;11.40;;;10.23;;
9334;SDS011;4706;41.844;26.082;2023-03-03T09:17:49;12.30;;;9.93;;
9334;SDS011;4706;41.844;26.082;2023-03-03T09:20:23;12.48;;;11.18;;
9334;SDS011;4706;41.844;26.082;2023-03-03T09:25:54;11.63;;;10.00;;
9334;SDS011;4706;41.844;26.082;2023-03-03T09:28:22;9.85;;;8.85;;
9334;SDS011;4706;41.844;26.082;2023-03-03T09:30:49;12.02;;;9.55;;
9334;SDS011;4706;41.844;26.082;2023-03-03T09:33:24;13.02;;;10.90;;
9334;SDS011;4706;41.844;26.082;2023-03-03T09:35:58;10.73;;;9.13;;
9334;SDS011;4706;41.844;26.082;2023-03-03T09:38:43;11.77;;;9.20;;
9334;SDS011;4706;41.844;26.082;2023-03-03T09:41:29;11.93;;;10.40;;
9334;SDS011;4706;41.844;26.082;2023-03-03T09:58:08;11.52;;;10.38;;
9334;SDS011;4706;41.844;26.082;2023-03-03T10:03:25;13.18;;;11.25;;
9334;SDS011;4706;41.844;26.082;2023-03-03T10:06:02;13.68;;;10.75;;
9334;SDS011;4706;41.844;26.082;2023-03-03T10:16:52;11.30;;;10.10;;
9334;SDS011;4706;41.844;26.082;2023-03-03T10:20:25;15.00;;;12.07;;
9334;SDS011;4706;41.844;26.082;2023-03-03T10:28:09;16.88;;;11.50;;
9334;SDS011;4706;41.844;26.082;2023-03-03T10:31:00;14.32;;;10.60;;
9334;SDS011;4706;41.844;26.082;2023-03-03T10:33:37;14.32;;;10.25;;
9334;SDS011;4706;41.844;26.082;2023-03-03T10:36:32;12.52;;;10.38;;
9334;SDS011;4706;41.844;26.082;2023-03-03T10:44:38;12.02;;;10.80;;
9334;SDS011;4706;41.844;26.082;2023-03-03T10:50:12;15.60;;;10.00;;
9334;SDS011;4706;41.844;26.082;2023-03-03T10:52:43;13.93;;;10.63;;
9334;SDS011;4706;41.844;26.082;2023-03-03T11:00:34;14.98;;;11.65;;
9334;SDS011;4706;41.844;26.082;2023-03-03T11:06:14;16.35;;;11.45;;
9334;SDS011;4706;41.844;26.082;2023-03-03T11:12:03;20.40;;;16.73;;
9334;SDS011;4706;41.844;26.082;2023-03-03T11:14:44;17.98;;;13.25;;
9334;SDS011;4706;41.844;26.082;2023-03-03T11:17:19;18.02;;;13.32;;
9334;SDS011;4706;41.844;26.082;2023-03-03T11:20:02;13.57;;;10.75;;
9334;SDS011;4706;41.844;26.082;2023-03-03T11:22:50;11.65;;;9.35;;
9334;SDS011;4706;41.844;26.082;2023-03-03T11:25:33;16.48;;;14.27;;
9334;SDS011;4706;41.844;26.082;2023-03-03T11:36:20;11.48;;;10.27;;
9334;SDS011;4706;41.844;26.082;2023-03-03T11:38:58;16.20;;;9.27;;
9334;SDS011;4706;41.844;26.082;2023-03-03T11:49:42;16.80;;;12.68;;
9334;SDS011;4706;41.844;26.082;2023-03-03T12:08:07;14.20;;;12.65;;
9334;SDS011;4706;41.844;26.082;2023-03-03T12:35:05;14.90;;;11.77;;
9334;SDS011;4706;41.844;26.082;2023-03-03T12:40:32;15.55;;;12.80;;
9334;SDS011;4706;41.844;26.082;2023-03-03T12:43:06;12.10;;;10.77;;
9334;SDS011;4706;41.844;26.082;2023-03-03T12:57:18;14.88;;;13.48;;
9334;SDS011;4706;41.844;26.082;2023-03-03T12:59:19;13.15;;;11.38;;
9334;SDS011;4706;41.844;26.082;2023-03-03T13:01:57;15.45;;;13.23;;
9334;SDS011;4706;41.844;26.082;2023-03-03T13:04:43;14.40;;;12.02;;
9334;SDS011;4706;41.844;26.082;2023-03-03T13:18:28;13.10;;;11.70;;
9334;SDS011;4706;41.844;26.082;2023-03-03T13:21:15;13.10;;;11.80;;
9334;SDS011;4706;41.844;26.082;2023-03-03T13:24:04;16.95;;;14.10;;
9334;SDS011;4706;41.844;26.082;2023-03-03T13:26:40;17.20;;;13.85;;
9334;SDS011;4706;41.844;26.082;2023-03-03T13:29:58;14.40;;;12.90;;
9334;SDS011;4706;41.844;26.082;2023-03-03T13:32:13;16.20;;;14.50;;
9334;SDS011;4706;41.844;26.082;2023-03-03T13:37:31;17.48;;;15.55;;
9334;SDS011;4706;41.844;26.082;2023-03-03T13:51:18;12.38;;;11.10;;
9334;SDS011;4706;41.844;26.082;2023-03-03T13:54:01;14.68;;;13.20;;
9334;SDS011;4706;41.844;26.082;2023-03-03T13:59:35;12.32;;;11.13;;
9334;SDS011;4706;41.844;26.082;2023-03-03T14:05:12;11.90;;;10.65;;
9334;SDS011;4706;41.844;26.082;2023-03-03T14:07:55;12.68;;;11.38;;
9334;SDS011;4706;41.844;26.082;2023-03-03T14:10:25;13.80;;;11.52;;
9334;SDS011;4706;41.844;26.082;2023-03-03T14:21:33;13.10;;;10.85;;
9334;SDS011;4706;41.844;26.082;2023-03-03T14:24:14;11.90;;;10.80;;
9334;SDS011;4706;41.844;26.082;2023-03-03T14:26:52;14.52;;;12.98;;
9334;SDS011;4706;41.844;26.082;2023-03-03T14:31:51;20.77;;;14.55;;
9334;SDS011;4706;41.844;26.082;2023-03-03T14:40:02;9.77;;;8.88;;
9334;SDS011;4706;41.844;26.082;2023-03-03T14:42:55;14.85;;;11.45;;
9334;SDS011;4706;41.844;26.082;2023-03-03T14:48:16;11.27;;;10.25;;
9334;SDS011;4706;41.844;26.082;2023-03-03T14:53:38;11.13;;;10.00;;
9334;SDS011;4706;41.844;26.082;2023-03-03T14:56:27;11.07;;;9.98;;
9334;SDS011;4706;41.844;26.082;2023-03-03T15:01:44;20.20;;;11.93;;
9334;SDS011;4706;41.844;26.082;2023-03-03T15:06:40;10.57;;;9.48;;
9334;SDS011;4706;41.844;26.082;2023-03-03T15:12:22;13.40;;;10.80;;
9334;SDS011;4706;41.844;26.082;2023-03-03T15:14:50;15.82;;;12.13;;
9334;SDS011;4706;41.844;26.082;2023-03-03T15:36:16;18.05;;;16.17;;
9334;SDS011;4706;41.844;26.082;2023-03-03T15:41:46;20.80;;;18.40;;
9334;SDS011;4706;41.844;26.082;2023-03-03T15:44:25;18.08;;;16.25;;
9334;SDS011;4706;41.844;26.082;2023-03-03T15:50:03;21.42;;;19.20;;
9334;SDS011;4706;41.844;26.082;2023-03-03T15:52:55;19.35;;;17.58;;
9334;SDS011;4706;41.844;26.082;2023-03-03T16:00:32;27.75;;;22.20;;
9334;SDS011;4706;41.844;26.082;2023-03-03T16:03:42;22.67;;;20.30;;
9334;SDS011;4706;41.844;26.082;2023-03-03T16:05:53;21.75;;;19.40;;
9334;SDS011;4706;41.844;26.082;2023-03-03T16:16:17;19.85;;;17.95;;
9334;SDS011;4706;41.844;26.082;2023-03-03T16:19:00;27.38;;;20.27;;
9334;SDS011;4706;41.844;26.082;2023-03-03T16:26:58;29.50;;;24.20;;
9334;SDS011;4706;41.844;26.082;2023-03-03T16:29:38;31.20;;;26.23;;
9334;SDS011;4706;41.844;26.082;2023-03-03T16:34:56;31.10;;;26.67;;
9334;SDS011;4706;41.844;26.082;2023-03-03T16:43:22;25.33;;;22.65;;
9334;SDS011;4706;41.844;26.082;2023-03-03T16:45:57;27.77;;;24.08;;
9334;SDS011;4706;41.844;26.082;2023-03-03T16:51:37;36.58;;;28.40;;
9334;SDS011;4706;41.844;26.082;2023-03-03T16:56:43;26.52;;;23.70;;
9334;SDS011;4706;41.844;26.082;2023-03-03T17:02:11;28.50;;;24.60;;
9334;SDS011;4706;41.844;26.082;2023-03-03T17:07:43;31.35;;;23.65;;
9334;SDS011;4706;41.844;26.082;2023-03-03T17:15:46;19.02;;;17.20;;
9334;SDS011;4706;41.844;26.082;2023-03-03T17:21:07;18.85;;;17.15;;
9334;SDS011;4706;41.844;26.082;2023-03-03T17:45:11;22.77;;;20.48;;
9334;SDS011;4706;41.844;26.082;2023-03-03T18:04:29;27.35;;;24.55;;
9334;SDS011;4706;41.844;26.082;2023-03-03T18:18:30;22.67;;;20.42;;
9334;SDS011;4706;41.844;26.082;2023-03-03T18:21:15;23.13;;;20.58;;
9334;SDS011;4706;41.844;26.082;2023-03-03T18:23:47;19.58;;;17.77;;
9334;SDS011;4706;41.844;26.082;2023-03-03T18:29:21;19.05;;;17.35;;
9334;SDS011;4706;41.844;26.082;2023-03-03T18:37:06;24.65;;;22.05;;
9334;SDS011;4706;41.844;26.082;2023-03-03T18:39:36;24.17;;;21.67;;
9334;SDS011;4706;41.844;26.082;2023-03-03T18:44:43;24.42;;;21.85;;
9334;SDS011;4706;41.844;26.082;2023-03-03T18:47:10;25.58;;;22.88;;
9334;SDS011;4706;41.844;26.082;2023-03-03T18:52:25;25.23;;;22.60;;
9334;SDS011;4706;41.844;26.082;2023-03-03T18:57:25;25.98;;;23.17;;
9334;SDS011;4706;41.844;26.082;2023-03-03T18:59:55;26.48;;;23.85;;
9334;SDS011;4706;41.844;26.082;2023-03-03T19:02:34;26.98;;;24.08;;
9334;SDS011;4706;41.844;26.082;2023-03-03T19:16:05;22.88;;;20.63;;
9334;SDS011;4706;41.844;26.082;2023-03-03T19:18:57;23.17;;;20.77;;
9334;SDS011;4706;41.844;26.082;2023-03-03T19:21:34;26.95;;;21.48;;
9334;SDS011;4706;41.844;26.082;2023-03-03T19:29:41;27.55;;;22.98;;
9334;SDS011;4706;41.844;26.082;2023-03-03T19:38:30;35.95;;;32.13;;
9334;SDS011;4706;41.844;26.082;2023-03-03T19:52:38;26.55;;;23.92;;
9334;SDS011;4706;41.844;26.082;2023-03-03T19:55:20;26.83;;;24.40;;
9334;SDS011;4706;41.844;26.082;2023-03-03T20:00:56;36.20;;;32.40;;
9334;SDS011;4706;41.844;26.082;2023-03-03T20:14:51;32.00;;;28.73;;
9334;SDS011;4706;41.844;26.082;2023-03-03T20:17:35;26.02;;;23.27;;
9334;SDS011;4706;41.844;26.082;2023-03-03T20:25:48;23.88;;;21.35;;
9334;SDS011;4706;41.844;26.082;2023-03-03T20:36:39;22.60;;;20.40;;
9334;SDS011;4706;41.844;26.082;2023-03-03T20:42:20;23.42;;;21.13;;
9334;SDS011;4706;41.844;26.082;2023-03-03T20:55:50;29.08;;;23.00;;
9334;SDS011;4706;41.844;26.082;2023-03-03T21:04:28;26.70;;;23.80;;
9334;SDS011;4706;41.844;26.082;2023-03-03T21:06:56;28.40;;;25.57;;
9334;SDS011;4706;41.844;26.082;2023-03-03T21:11:54;27.75;;;24.85;;
9334;SDS011;4706;41.844;26.082;2023-03-03T21:14:28;30.00;;;27.02;;
9334;SDS011;4706;41.844;26.082;2023-03-03T21:16:56;32.88;;;29.60;;
9334;SDS011;4706;41.844;26.082;2023-03-03T21:21:51;33.63;;;30.15;;
9334;SDS011;4706;41.844;26.082;2023-03-03T21:24:18;225.50;;;121.32;;
9334;SDS011;4706;41.844;26.082;2023-03-03T21:29:29;57.63;;;37.53;;
9334;SDS011;4706;41.844;26.082;2023-03-03T21:34:28;250.68;;;92.43;;
9334;SDS011;4706;41.844;26.082;2023-03-03T21:36:58;254.52;;;101.95;;
9334;SDS011;4706;41.844;26.082;2023-03-03T21:39:26;115.32;;;55.55;;
9334;SDS011;4706;41.844;26.082;2023-03-03T21:44:37;30.60;;;27.33;;
9334;SDS011;4706;41.844;26.082;2023-03-03T21:49:42;30.60;;;26.00;;
9334;SDS011;4706;41.844;26.082;2023-03-03T21:52:10;28.88;;;26.08;;
9334;SDS011;4706;41.844;26.082;2023-03-03T21:54:37;29.02;;;26.02;;
9334;SDS011;4706;41.844;26.082;2023-03-03T21:57:03;30.60;;;27.52;;
9334;SDS011;4706;41.844;26.082;2023-03-03T21:59:29;35.60;;;31.80;;
9334;SDS011;4706;41.844;26.082;2023-03-03T22:01:54;45.47;;;40.57;;
9334;SDS011;4706;41.844;26.082;2023-03-03T22:04:20;42.53;;;38.03;;
9334;SDS011;4706;41.844;26.082;2023-03-03T22:06:45;38.47;;;34.28;;
9334;SDS011;4706;41.844;26.082;2023-03-03T22:09:11;32.30;;;28.95;;
9334;SDS011;4706;41.844;26.082;2023-03-03T22:11:37;31.08;;;27.83;;
9334;SDS011;4706;41.844;26.082;2023-03-03T22:14:04;30.97;;;27.77;;
9334;SDS011;4706;41.844;26.082;2023-03-03T22:16:30;31.50;;;28.10;;
9334;SDS011;4706;41.844;26.082;2023-03-03T22:18:56;31.77;;;28.60;;
9334;SDS011;4706;41.844;26.082;2023-03-03T22:21:22;31.70;;;28.53;;
9334;SDS011;4706;41.844;26.082;2023-03-03T22:23:48;34.43;;;31.03;;
9334;SDS011;4706;41.844;26.082;2023-03-03T22:26:13;28.77;;;25.87;;
9334;SDS011;4706;41.844;26.082;2023-03-03T22:28:39;29.23;;;26.33;;
9334;SDS011;4706;41.844;26.082;2023-03-03T22:31:04;27.60;;;24.83;;
9334;SDS011;4706;41.844;26.082;2023-03-03T22:33:30;27.40;;;24.50;;
9334;SDS011;4706;41.844;26.082;2023-03-03T22:35:55;27.63;;;24.70;;